Time;durP1;ratioP1;P1;durP2;ratioP2;P2;SDS_P1;SDS_P2;PMS_P1;PMS_P2;Temp;Humidity;BMP_temperature;BMP_pressure;BME280_temperature;BME280_humidity;BME280_pressure;Samples;Min_cycle;Max_cycle;Signal;HPM_P1;HPM_P2
2022/09/10 00:02:12;;;;;;;9.40;7.10;;;;;;;;;;110048;1252;33793;-36
2022/09/10 00:04:43;;;;;;;8.50;6.90;;;;;;;;;;110041;1250;36223;-35
2022/09/10 00:07:17;;;;;;;7.90;6.40;;;;;;;;;;110050;1251;36629;-35
2022/09/10 00:09:48;;;;;;;7.80;6.90;;;;;;;;;;110092;1251;34605;-35
2022/09/10 00:12:19;;;;;;;7.70;6.30;;;;;;;;;;110053;1251;33877;-35
2022/09/10 00:14:52;;;;;;;8.20;6.50;;;;;;;;;;110001;1252;36099;-35
2022/09/10 00:17:23;;;;;;;7.40;6.40;;;;;;;;;;110079;1252;36415;-35
2022/09/10 00:19:58;;;;;;;8.00;5.80;;;;;;;;;;110027;1252;35746;-35
2022/09/10 00:22:29;;;;;;;7.60;6.30;;;;;;;;;;110058;1252;34905;-35
2022/09/10 00:24:59;;;;;;;6.90;6.10;;;;;;;;;;110035;1252;36537;-35
2022/09/10 00:27:30;;;;;;;7.30;6.10;;;;;;;;;;110019;1251;36508;-35
2022/09/10 00:30:02;;;;;;;6.90;6.10;;;;;;;;;;110061;1252;33557;-34
2022/09/10 00:32:34;;;;;;;7.00;6.10;;;;;;;;;;110075;1251;34813;-35
2022/09/10 00:35:06;;;;;;;7.30;6.20;;;;;;;;;;110004;1252;36399;-35
2022/09/10 00:37:37;;;;;;;7.00;5.80;;;;;;;;;;110069;1252;38170;-35
2022/09/10 00:40:10;;;;;;;7.50;6.20;;;;;;;;;;110053;1253;34866;-35
2022/09/10 00:42:42;;;;;;;7.00;5.70;;;;;;;;;;110072;1252;36435;-35
2022/09/10 00:45:20;;;;;;;7.10;6.00;;;;;;;;;;110032;1251;36564;-35
2022/09/10 00:47:54;;;;;;;7.00;6.00;;;;;;;;;;110084;1251;36544;-35
2022/09/10 00:50:28;;;;;;;6.80;6.00;;;;;;;;;;110065;1251;34844;-35
2022/09/10 00:53:04;;;;;;;6.90;5.60;;;;;;;;;;110084;1251;34297;-35
2022/09/10 00:55:38;;;;;;;6.60;5.60;;;;;;;;;;110026;1252;36044;-35
2022/09/10 00:58:13;;;;;;;6.90;5.40;;;;;;;;;;110075;1252;36494;-35
2022/09/10 01:00:45;;;;;;;7.00;5.50;;;;;;;;;;110038;1252;36514;-34
2022/09/10 01:03:18;;;;;;;6.80;5.40;;;;;;;;;;110043;1252;36040;-35
2022/09/10 01:05:48;;;;;;;;;;;;;;;;;;109986;1252;36103;-35
2022/09/10 01:08:20;;;;;;;7.10;5.50;;;;;;;;;;110069;1251;35674;-35
2022/09/10 01:11:10;;;;;;;6.50;5.50;;;;;;;;;;110044;1251;36671;-35
2022/09/10 01:13:59;;;;;;;7.10;6.00;;;;;;;;;;110055;1251;36588;-35
2022/09/10 01:16:38;;;;;;;7.30;5.40;;;;;;;;;;109991;1252;34697;-35
2022/09/10 01:19:24;;;;;;;6.10;5.00;;;;;;;;;;110044;1252;36035;-35
2022/09/10 01:22:06;;;;;;;6.40;5.20;;;;;;;;;;110032;1252;36163;-35
2022/09/10 01:24:50;;;;;;;6.60;5.10;;;;;;;;;;110008;1251;36415;-35
2022/09/10 01:27:35;;;;;;;7.20;5.90;;;;;;;;;;110064;1251;36554;-35
2022/09/10 01:30:11;;;;;;;7.10;5.50;;;;;;;;;;110054;1251;36581;-35
2022/09/10 01:32:50;;;;;;;6.70;5.70;;;;;;;;;;110045;1252;36466;-35
2022/09/10 01:35:27;;;;;;;6.40;5.30;;;;;;;;;;110061;1252;34620;-35
2022/09/10 01:38:03;;;;;;;6.20;5.00;;;;;;;;;;110083;1252;36131;-35
2022/09/10 01:40:37;;;;;;;7.00;4.90;;;;;;;;;;110060;1252;36585;-35
2022/09/10 01:43:09;;;;;;;5.90;4.70;;;;;;;;;;110095;1253;36025;-34
2022/09/10 01:45:50;;;;;;;6.50;4.50;;;;;;;;;;110066;1251;34788;-35
2022/09/10 01:48:39;;;;;;;6.00;5.00;;;;;;;;;;110051;1251;34781;-35
2022/09/10 01:51:19;;;;;;;6.30;5.10;;;;;;;;;;110088;1251;36752;-35
2022/09/10 01:54:02;;;;;;;5.80;5.10;;;;;;;;;;110070;1251;36128;-35
2022/09/10 01:56:40;;;;;;;6.10;5.30;;;;;;;;;;110008;1251;36210;-35
2022/09/10 01:59:21;;;;;;;6.10;4.70;;;;;;;;;;110047;1253;36565;-35
2022/09/10 02:01:56;;;;;;;6.00;5.00;;;;;;;;;;110084;1252;36470;-35
2022/09/10 02:04:28;;;;;;;5.70;4.00;;;;;;;;;;110036;1252;36678;-35
2022/09/10 02:07:00;;;;;;;6.40;5.30;;;;;;;;;;110070;1250;33548;-35
2022/09/10 02:09:30;;;;;;;5.80;4.80;;;;;;;;;;110131;1251;36559;-35
2022/09/10 02:12:01;;;;;;;6.10;4.80;;;;;;;;;;110126;1251;36745;-35
2022/09/10 02:14:33;;;;;;;5.80;4.70;;;;;;;;;;110144;1251;34659;-35
2022/09/10 02:17:09;;;;;;;6.80;4.80;;;;;;;;;;110065;1251;36014;-35
2022/09/10 02:19:41;;;;;;;6.30;4.80;;;;;;;;;;110083;1252;36542;-34
2022/09/10 02:22:14;;;;;;;6.10;4.50;;;;;;;;;;110068;1252;36363;-34
2022/09/10 02:24:45;;;;;;;6.10;4.80;;;;;;;;;;110061;1252;35180;-34
2022/09/10 02:27:17;;;;;;;5.70;4.60;;;;;;;;;;110082;1250;35952;-35
2022/09/10 02:29:48;;;;;;;6.80;4.90;;;;;;;;;;110157;1251;36210;-35
2022/09/10 02:32:19;;;;;;;5.50;4.10;;;;;;;;;;110118;1251;36373;-35
2022/09/10 02:34:50;;;;;;;6.40;4.80;;;;;;;;;;110138;1251;34711;-35
2022/09/10 02:37:20;;;;;;;6.60;5.00;;;;;;;;;;110060;1251;36075;-34
2022/09/10 02:39:51;;;;;;;6.20;5.00;;;;;;;;;;110089;1252;36069;-34
2022/09/10 02:42:22;;;;;;;5.90;4.70;;;;;;;;;;110052;1252;35001;-35
2022/09/10 02:44:53;;;;;;;5.60;4.90;;;;;;;;;;110064;1252;36128;-35
2022/09/10 02:47:24;;;;;;;5.50;4.40;;;;;;;;;;110076;1251;36067;-35
2022/09/10 02:49:54;;;;;;;5.60;4.80;;;;;;;;;;110138;1251;36546;-34
2022/09/10 02:52:25;;;;;;;5.40;4.20;;;;;;;;;;110114;1251;35138;-35
2022/09/10 02:54:56;;;;;;;5.70;4.30;;;;;;;;;;110144;1251;36629;-35
2022/09/10 02:57:28;;;;;;;5.50;4.00;;;;;;;;;;110055;1252;36664;-35
2022/09/10 02:59:59;;;;;;;7.50;4.80;;;;;;;;;;110060;1253;34796;-34
2022/09/10 03:02:29;;;;;;;6.10;4.50;;;;;;;;;;110092;1252;36294;-34
2022/09/10 03:05:00;;;;;;;6.20;4.90;;;;;;;;;;110063;1252;34782;-34
2022/09/10 03:07:32;;;;;;;5.70;4.40;;;;;;;;;;110048;1251;34756;-35
2022/09/10 03:10:04;;;;;;;5.80;4.40;;;;;;;;;;110070;1251;35040;-35
2022/09/10 03:12:35;;;;;;;5.60;4.50;;;;;;;;;;110086;1251;36623;-35
2022/09/10 03:15:07;;;;;;;5.50;4.10;;;;;;;;;;110078;1251;36030;-35
2022/09/10 03:17:38;;;;;;;6.30;4.50;;;;;;;;;;110072;1252;36473;-35
2022/09/10 03:20:10;;;;;;;6.60;4.50;;;;;;;;;;110081;1252;36105;-34
2022/09/10 03:22:41;;;;;;;5.70;4.30;;;;;;;;;;110088;1252;36595;-35
2022/09/10 03:25:12;;;;;;;5.80;4.60;;;;;;;;;;110082;1253;36588;-34
2022/09/10 03:27:42;;;;;;;5.60;4.40;;;;;;;;;;110037;1251;34857;-34
2022/09/10 03:30:15;;;;;;;6.40;4.50;;;;;;;;;;110097;1252;36121;-34
2022/09/10 03:32:45;;;;;;;5.50;4.10;;;;;;;;;;110109;1251;36623;-35
2022/09/10 03:35:21;;;;;;;5.80;4.20;;;;;;;;;;110041;1251;36480;-35
2022/09/10 03:37:52;;;;;;;5.90;4.70;;;;;;;;;;110029;1252;35015;-35
2022/09/10 03:40:23;;;;;;;5.90;4.40;;;;;;;;;;110042;1252;36158;-34
2022/09/10 03:42:53;;;;;;;5.60;4.30;;;;;;;;;;110088;1252;36076;-34
2022/09/10 03:45:24;;;;;;;5.00;4.10;;;;;;;;;;110083;1252;36830;-34
2022/09/10 03:47:54;;;;;;;5.60;4.10;;;;;;;;;;110079;1251;35398;-35
2022/09/10 03:50:26;;;;;;;5.80;4.10;;;;;;;;;;110045;1251;36111;-34
2022/09/10 03:52:56;;;;;;;5.20;4.20;;;;;;;;;;110056;1252;36053;-34
2022/09/10 03:55:30;;;;;;;6.20;4.20;;;;;;;;;;110065;1251;36410;-35
2022/09/10 03:58:00;;;;;;;5.80;4.40;;;;;;;;;;110021;1251;36044;-35
2022/09/10 04:00:34;;;;;;;5.20;3.70;;;;;;;;;;110077;1253;36034;-35
2022/09/10 04:03:05;;;;;;;6.00;4.00;;;;;;;;;;110095;1252;36381;-35
2022/09/10 04:05:42;;;;;;;5.90;4.20;;;;;;;;;;110090;1252;34781;-35
2022/09/10 04:08:14;;;;;;;5.70;4.10;;;;;;;;;;110058;1252;38168;-35
2022/09/10 04:10:46;;;;;;;5.20;3.90;;;;;;;;;;110144;1251;36630;-35
2022/09/10 04:13:16;;;;;;;5.80;3.70;;;;;;;;;;110119;1251;36887;-35
2022/09/10 04:15:47;;;;;;;5.60;4.10;;;;;;;;;;110155;1251;36642;-35
2022/09/10 04:18:18;;;;;;;5.60;3.90;;;;;;;;;;110074;1251;36033;-35
2022/09/10 04:20:49;;;;;;;5.20;4.10;;;;;;;;;;110065;1252;34686;-35
2022/09/10 04:23:19;;;;;;;5.10;4.00;;;;;;;;;;110046;1252;37988;-35
2022/09/10 04:25:51;;;;;;;5.70;3.90;;;;;;;;;;110072;1252;34886;-35
2022/09/10 04:28:22;;;;;;;5.80;3.60;;;;;;;;;;110065;1251;36911;-35
2022/09/10 04:30:53;;;;;;;6.30;4.10;;;;;;;;;;110126;1251;36463;-35
2022/09/10 04:33:24;;;;;;;5.20;3.80;;;;;;;;;;110113;1251;36486;-36
2022/09/10 04:35:59;;;;;;;5.20;3.90;;;;;;;;;;110118;1251;35492;-37
2022/09/10 04:38:32;;;;;;;5.10;4.10;;;;;;;;;;110070;1251;36524;-37
2022/09/10 04:41:03;;;;;;;5.20;4.30;;;;;;;;;;110077;1252;36226;-37
2022/09/10 04:43:33;;;;;;;5.70;4.50;;;;;;;;;;110067;1253;34718;-37
2022/09/10 04:46:04;;;;;;;5.40;4.00;;;;;;;;;;110075;1253;34742;-37
2022/09/10 04:48:35;;;;;;;5.50;3.90;;;;;;;;;;110046;1250;36150;-38
2022/09/10 04:51:07;;;;;;;5.10;3.80;;;;;;;;;;110134;1251;36472;-37
2022/09/10 04:53:37;;;;;;;5.30;3.80;;;;;;;;;;110091;1251;35098;-37
2022/09/10 04:56:09;;;;;;;4.80;3.70;;;;;;;;;;110121;1251;36605;-37
2022/09/10 04:58:40;;;;;;;5.60;3.80;;;;;;;;;;110108;1251;36223;-37
2022/09/10 05:01:11;;;;;;;4.90;3.90;;;;;;;;;;110057;1252;36547;-37
2022/09/10 05:03:42;;;;;;;5.40;3.80;;;;;;;;;;110018;1252;34599;-37
2022/09/10 05:06:13;;;;;;;4.90;3.80;;;;;;;;;;110073;1252;36131;-37
2022/09/10 05:08:43;;;;;;;5.40;4.00;;;;;;;;;;110082;1252;36544;-37
2022/09/10 05:11:18;;;;;;;5.70;4.30;;;;;;;;;;110077;1251;38172;-37
2022/09/10 05:13:49;;;;;;;5.20;3.70;;;;;;;;;;110122;1252;36508;-37
2022/09/10 05:16:20;;;;;;;4.90;3.70;;;;;;;;;;110118;1252;36542;-36
2022/09/10 05:18:52;;;;;;;5.20;3.80;;;;;;;;;;110131;1251;36475;-37
2022/09/10 05:21:22;;;;;;;5.30;4.00;;;;;;;;;;110050;1252;34631;-37
2022/09/10 05:23:54;;;;;;;5.50;4.20;;;;;;;;;;110078;1252;36111;-38
2022/09/10 05:26:27;;;;;;;5.30;3.70;;;;;;;;;;110063;1252;36812;-37
2022/09/10 05:28:59;;;;;;;5.50;4.00;;;;;;;;;;110114;1252;36817;-35
2022/09/10 05:31:29;;;;;;;5.60;4.10;;;;;;;;;;110063;1250;34653;-35
2022/09/10 05:34:01;;;;;;;5.60;4.10;;;;;;;;;;110113;1252;36438;-35
2022/09/10 05:36:32;;;;;;;5.40;4.10;;;;;;;;;;110115;1253;36171;-35
2022/09/10 05:39:05;;;;;;;5.40;3.40;;;;;;;;;;110116;1252;36061;-35
2022/09/10 05:41:36;;;;;;;5.50;3.50;;;;;;;;;;110013;1252;33863;-35
2022/09/10 05:44:07;;;;;;;4.80;3.60;;;;;;;;;;110074;1252;35975;-35
2022/09/10 05:46:39;;;;;;;5.00;3.70;;;;;;;;;;110088;1252;36054;-35
2022/09/10 05:49:14;;;;;;;5.50;3.90;;;;;;;;;;110056;1252;34521;-35
2022/09/10 05:51:44;;;;;;;5.20;3.80;;;;;;;;;;110087;1250;35535;-35
2022/09/10 05:54:16;;;;;;;4.70;3.50;;;;;;;;;;110109;1252;36468;-35
2022/09/10 05:56:47;;;;;;;5.70;3.90;;;;;;;;;;110053;1252;36389;-35
2022/09/10 05:59:18;;;;;;;5.30;4.30;;;;;;;;;;110082;1253;34850;-35
2022/09/10 06:01:50;;;;;;;5.00;3.60;;;;;;;;;;110089;1252;33578;-35
2022/09/10 06:04:21;;;;;;;5.10;3.50;;;;;;;;;;110082;1252;36137;-35
2022/09/10 06:06:53;;;;;;;5.30;3.90;;;;;;;;;;110118;1252;38306;-35
2022/09/10 06:09:24;;;;;;;5.10;3.50;;;;;;;;;;110130;1252;34690;-35
2022/09/10 06:11:55;;;;;;;5.40;3.70;;;;;;;;;;110072;1251;35992;-35
2022/09/10 06:14:25;;;;;;;4.80;3.50;;;;;;;;;;110099;1251;36414;-36
2022/09/10 06:16:56;;;;;;;5.50;3.50;;;;;;;;;;110079;1251;36578;-35
2022/09/10 06:19:27;;;;;;;5.00;3.80;;;;;;;;;;110128;1251;36157;-35
2022/09/10 06:21:57;;;;;;;6.70;4.10;;;;;;;;;;109972;1253;36532;-35
2022/09/10 06:24:28;;;;;;;5.50;3.70;;;;;;;;;;110120;1253;36245;-35
2022/09/10 06:26:59;;;;;;;5.70;4.00;;;;;;;;;;110134;1252;36558;-35
2022/09/10 06:29:29;;;;;;;5.00;3.70;;;;;;;;;;110112;1252;36108;-35
2022/09/10 06:32:00;;;;;;;6.20;3.60;;;;;;;;;;110081;1251;36616;-35
2022/09/10 06:34:31;;;;;;;5.60;3.70;;;;;;;;;;110146;1252;36534;-35
2022/09/10 06:37:03;;;;;;;5.70;3.70;;;;;;;;;;110163;1251;34595;-35
2022/09/10 06:39:34;;;;;;;6.00;3.90;;;;;;;;;;110151;1252;34648;-35
2022/09/10 06:42:07;;;;;;;5.10;3.60;;;;;;;;;;110091;1253;36745;-35
2022/09/10 06:44:39;;;;;;;4.50;3.30;;;;;;;;;;110159;1252;36823;-35
2022/09/10 06:47:09;;;;;;;4.90;3.30;;;;;;;;;;110112;1252;36409;-35
2022/09/10 06:49:40;;;;;;;5.30;3.80;;;;;;;;;;110151;1252;35996;-35
2022/09/10 06:52:11;;;;;;;6.20;3.80;;;;;;;;;;110067;1252;36233;-35
2022/09/10 06:54:46;;;;;;;5.50;3.40;;;;;;;;;;110113;1252;35711;-35
2022/09/10 06:57:17;;;;;;;5.20;3.60;;;;;;;;;;110182;1252;36061;-35
2022/09/10 06:59:48;;;;;;;4.30;3.10;;;;;;;;;;110167;1251;36511;-35
2022/09/10 07:02:18;;;;;;;5.10;3.70;;;;;;;;;;110103;1252;36553;-35
2022/09/10 07:04:49;;;;;;;5.10;3.70;;;;;;;;;;110135;1252;34795;-35
2022/09/10 07:07:20;;;;;;;5.30;3.70;;;;;;;;;;110110;1251;36700;-35
2022/09/10 07:09:54;;;;;;;5.20;3.40;;;;;;;;;;110161;1252;34769;-35
2022/09/10 07:12:24;;;;;;;5.70;3.50;;;;;;;;;;110076;1251;37715;-35
2022/09/10 07:14:55;;;;;;;5.00;3.50;;;;;;;;;;110052;1252;35464;-35
2022/09/10 07:17:26;;;;;;;6.30;3.80;;;;;;;;;;109726;1251;439672;-35
2022/09/10 07:19:57;;;;;;;4.80;3.30;;;;;;;;;;110078;1252;36938;-35
2022/09/10 07:22:31;;;;;;;5.70;3.70;;;;;;;;;;110049;1252;37452;-36
2022/09/10 07:25:01;;;;;;;5.40;3.40;;;;;;;;;;110101;1252;36166;-36
2022/09/10 07:27:32;;;;;;;4.90;3.40;;;;;;;;;;110112;1252;36530;-36
2022/09/10 07:30:07;;;;;;;5.40;3.20;;;;;;;;;;110123;1252;36523;-36
2022/09/10 07:32:40;;;;;;;4.90;3.30;;;;;;;;;;110099;1250;35376;-36
2022/09/10 07:35:14;;;;;;;6.20;3.60;;;;;;;;;;110062;1252;36455;-36
2022/09/10 07:37:46;;;;;;;5.80;3.60;;;;;;;;;;110103;1251;38164;-36
2022/09/10 07:40:17;;;;;;;8.20;3.60;;;;;;;;;;110062;1252;34011;-36
2022/09/10 07:42:48;;;;;;;5.30;3.80;;;;;;;;;;110043;1252;36519;-36
2022/09/10 07:45:19;;;;;;;4.60;3.30;;;;;;;;;;110127;1252;36437;-36
2022/09/10 07:47:50;;;;;;;5.90;3.80;;;;;;;;;;110107;1252;36524;-36
2022/09/10 07:50:20;;;;;;;5.10;3.50;;;;;;;;;;110132;1252;34708;-36
2022/09/10 07:52:51;;;;;;;6.70;3.90;;;;;;;;;;110056;1251;36027;-36
2022/09/10 07:55:25;;;;;;;7.00;3.60;;;;;;;;;;110080;1251;36676;-36
2022/09/10 07:57:56;;;;;;;4.50;3.20;;;;;;;;;;110084;1251;36485;-36
2022/09/10 08:00:28;;;;;;;5.40;3.50;;;;;;;;;;110047;1251;35963;-36
2022/09/10 08:02:59;;;;;;;4.80;3.50;;;;;;;;;;110061;1252;36122;-36
2022/09/10 08:05:30;;;;;;;5.90;3.80;;;;;;;;;;110124;1251;36589;-36
2022/09/10 08:08:01;;;;;;;5.10;3.50;;;;;;;;;;110022;1253;36505;-36
2022/09/10 08:10:32;;;;;;;6.80;4.00;;;;;;;;;;110132;1252;35709;-36
2022/09/10 08:13:03;;;;;;;5.10;3.30;;;;;;;;;;110102;1252;36700;-37
2022/09/10 08:15:34;;;;;;;5.20;3.40;;;;;;;;;;110151;1251;34736;-37
2022/09/10 08:18:06;;;;;;;5.00;3.60;;;;;;;;;;110139;1251;36419;-37
2022/09/10 08:20:38;;;;;;;5.50;4.30;;;;;;;;;;110136;1251;36010;-36
2022/09/10 08:23:10;;;;;;;5.40;3.40;;;;;;;;;;110126;1251;36524;-37
2022/09/10 08:25:48;;;;;;;5.20;3.20;;;;;;;;;;110134;1251;38107;-37
2022/09/10 08:28:20;;;;;;;5.10;3.50;;;;;;;;;;110119;1251;33623;-36
2022/09/10 08:31:00;;;;;;;5.10;3.40;;;;;;;;;;110116;1252;35954;-36
2022/09/10 08:33:31;;;;;;;5.30;3.50;;;;;;;;;;110122;1251;36108;-36
2022/09/10 08:36:06;;;;;;;5.10;3.60;;;;;;;;;;110134;1251;34682;-36
2022/09/10 08:38:38;;;;;;;5.90;3.80;;;;;;;;;;110147;1253;34629;-35
2022/09/10 08:41:13;;;;;;;6.20;3.90;;;;;;;;;;110152;1252;36087;-34
2022/09/10 08:43:49;;;;;;;5.40;3.30;;;;;;;;;;110106;1251;36460;-35
2022/09/10 08:46:24;;;;;;;6.30;3.80;;;;;;;;;;110161;1252;36400;-35
2022/09/10 08:48:58;;;;;;;;;;;;;;;;;;110147;1253;34666;-35
2022/09/10 08:51:33;;;;;;;5.60;3.90;;;;;;;;;;110113;1252;35654;-35
2022/09/10 08:54:11;;;;;;;6.10;3.90;;;;;;;;;;110080;1251;36195;-35
2022/09/10 08:56:42;;;;;;;4.80;3.80;;;;;;;;;;110143;1251;36352;-35
2022/09/10 08:59:21;;;;;;;5.30;4.00;;;;;;;;;;110138;1251;36544;-35
2022/09/10 09:02:00;;;;;;;6.30;4.30;;;;;;;;;;110123;1252;36019;-35
2022/09/10 09:04:42;;;;;;;5.50;3.80;;;;;;;;;;110072;1250;36300;-35
2022/09/10 09:07:18;;;;;;;5.30;4.20;;;;;;;;;;110074;1252;36144;-35
2022/09/10 09:09:53;;;;;;;6.20;4.70;;;;;;;;;;110053;1252;36450;-35
2022/09/10 09:12:33;;;;;;;6.20;4.70;;;;;;;;;;110088;1252;36319;-35
2022/09/10 09:15:14;;;;;;;5.30;4.30;;;;;;;;;;110115;1253;36026;-35
2022/09/10 09:17:57;;;;;;;5.40;4.80;;;;;;;;;;110144;1252;33987;-35
2022/09/10 09:20:40;;;;;;;6.40;4.80;;;;;;;;;;110131;1251;34756;-35
2022/09/10 09:23:20;;;;;;;5.70;4.50;;;;;;;;;;110122;1251;36752;-35
2022/09/10 09:25:55;;;;;;;5.70;4.50;;;;;;;;;;110064;1252;36565;-35
2022/09/10 09:28:35;;;;;;;6.40;5.00;;;;;;;;;;110094;1252;36522;-35
2022/09/10 09:31:12;;;;;;;6.30;5.10;;;;;;;;;;110068;1252;36752;-35
2022/09/10 09:33:45;;;;;;;6.60;4.70;;;;;;;;;;110059;1251;35186;-35
2022/09/10 09:36:24;;;;;;;5.90;4.60;;;;;;;;;;110081;1252;36297;-35
2022/09/10 09:38:55;;;;;;;7.30;5.30;;;;;;;;;;110129;1252;36504;-35
2022/09/10 09:41:35;;;;;;;7.40;5.90;;;;;;;;;;110132;1251;37803;-35
2022/09/10 09:44:17;;;;;;;7.90;5.50;;;;;;;;;;110128;1251;35239;-35
2022/09/10 09:46:49;;;;;;;6.90;5.90;;;;;;;;;;110217;1251;34691;-35
2022/09/10 09:49:20;;;;;;;8.00;5.90;;;;;;;;;;110112;1251;36534;-35
2022/09/10 09:51:50;;;;;;;7.50;6.10;;;;;;;;;;110134;1252;34663;-35
2022/09/10 09:54:26;;;;;;;7.50;5.60;;;;;;;;;;110119;1251;34894;-35
2022/09/10 09:57:00;;;;;;;9.60;5.80;;;;;;;;;;110072;1251;36582;-35
2022/09/10 09:59:34;;;;;;;7.80;5.60;;;;;;;;;;110078;1252;36616;-35
2022/09/10 10:02:12;;;;;;;9.10;6.40;;;;;;;;;;110079;1252;36449;-35
2022/09/10 10:04:59;;;;;;;9.00;5.80;;;;;;;;;;110066;1252;34940;-35
2022/09/10 10:07:33;;;;;;;7.30;5.80;;;;;;;;;;110110;1251;40476;-35
2022/09/10 10:10:10;;;;;;;8.10;6.10;;;;;;;;;;110178;1251;36479;-35
2022/09/10 10:12:49;;;;;;;8.60;6.00;;;;;;;;;;110137;1252;36124;-35
2022/09/10 10:15:36;;;;;;;7.40;5.80;;;;;;;;;;110143;1251;36518;-35
2022/09/10 10:18:30;;;;;;;10.90;7.00;;;;;;;;;;110160;1253;36019;-35
2022/09/10 10:21:17;;;;;;;8.60;6.30;;;;;;;;;;110185;1251;36674;-35
2022/09/10 10:23:51;;;;;;;7.90;5.50;;;;;;;;;;110180;1252;36370;-35
2022/09/10 10:26:30;;;;;;;7.80;6.00;;;;;;;;;;110120;1252;34819;-35
2022/09/10 10:29:05;;;;;;;7.00;6.00;;;;;;;;;;110164;1251;36160;-35
2022/09/10 10:31:42;;;;;;;6.70;5.80;;;;;;;;;;110186;1251;34893;-35
2022/09/10 10:34:28;;;;;;;8.10;6.00;;;;;;;;;;110133;1251;36482;-35
2022/09/10 10:37:07;;;;;;;7.80;5.90;;;;;;;;;;110138;1253;34830;-35
2022/09/10 10:39:55;;;;;;;8.30;5.70;;;;;;;;;;110148;1252;35149;-35
2022/09/10 10:42:31;;;;;;;6.70;5.70;;;;;;;;;;110144;1253;36013;-35
2022/09/10 10:45:17;;;;;;;7.20;6.00;;;;;;;;;;110177;1253;36035;-35
2022/09/10 10:48:01;;;;;;;7.00;5.70;;;;;;;;;;110097;1253;36057;-35
2022/09/10 10:50:42;;;;;;;8.90;6.10;;;;;;;;;;110151;1251;36974;-36
2022/09/10 10:53:24;;;;;;;7.60;5.90;;;;;;;;;;110130;1253;36373;-37
2022/09/10 10:56:05;;;;;;;7.80;6.20;;;;;;;;;;110179;1253;36463;-37
2022/09/10 10:58:48;;;;;;;6.60;5.90;;;;;;;;;;110125;1251;34609;-35
2022/09/10 11:01:23;;;;;;;8.90;5.90;;;;;;;;;;110184;1252;35491;-35
2022/09/10 11:04:00;;;;;;;9.40;6.30;;;;;;;;;;110182;1252;36029;-35
2022/09/10 11:06:38;;;;;;;7.70;6.50;;;;;;;;;;110179;1253;36148;-35
2022/09/10 11:09:22;;;;;;;7.40;6.20;;;;;;;;;;110106;1252;36349;-36
2022/09/10 11:12:01;;;;;;;9.60;6.00;;;;;;;;;;109951;1252;36102;-34
2022/09/10 11:14:36;;;;;;;9.20;6.40;;;;;;;;;;109959;1252;36186;-34
2022/09/10 11:17:14;;;;;;;9.20;6.80;;;;;;;;;;109920;1252;34741;-34
2022/09/10 11:19:52;;;;;;;9.70;7.20;;;;;;;;;;109992;1254;36694;-35
2022/09/10 11:22:29;;;;;;;11.10;6.50;;;;;;;;;;109971;1253;36581;-36
2022/09/10 11:25:10;;;;;;;8.60;6.40;;;;;;;;;;109988;1253;36517;-35
2022/09/10 11:27:47;;;;;;;7.60;6.50;;;;;;;;;;109970;1253;36226;-36
2022/09/10 11:30:19;;;;;;;8.10;6.20;;;;;;;;;;110005;1257;34939;-34
2022/09/10 11:32:59;;;;;;;7.10;6.00;;;;;;;;;;110008;1253;36739;-35
2022/09/10 11:35:38;;;;;;;7.80;6.50;;;;;;;;;;109985;1252;36657;-39
2022/09/10 11:38:21;;;;;;;8.70;6.80;;;;;;;;;;109944;1252;36749;-39
2022/09/10 11:41:03;;;;;;;9.00;6.70;;;;;;;;;;109853;1253;35300;-36
2022/09/10 11:43:42;;;;;;;8.00;6.70;;;;;;;;;;109863;1254;35294;-32
2022/09/10 11:46:16;;;;;;;8.20;6.90;;;;;;;;;;110059;1254;34936;-32
2022/09/10 11:48:55;;;;;;;8.90;7.30;;;;;;;;;;109917;1253;36433;-32
2022/09/10 11:51:35;;;;;;;9.40;7.40;;;;;;;;;;110658;1252;36248;-34
2022/09/10 11:54:16;;;;;;;8.70;6.70;;;;;;;;;;110057;1251;34852;-38
2022/09/10 11:56:59;;;;;;;8.40;7.20;;;;;;;;;;110048;1251;36287;-37
2022/09/10 11:59:51;;;;;;;8.60;7.50;;;;;;;;;;109937;1252;34096;-37
2022/09/10 12:03:17;;;;;;;8.70;7.60;;;;;;;;;;110004;1253;34695;-38
2022/09/10 12:06:00;;;;;;;8.90;7.70;;;;;;;;;;109833;1252;36677;-37
2022/09/10 12:08:42;;;;;;;8.20;7.40;;;;;;;;;;110215;1252;36210;-33
2022/09/10 12:11:24;;;;;;;8.10;7.30;;;;;;;;;;110026;1253;35318;-33
2022/09/10 12:13:56;;;;;;;8.60;7.70;;;;;;;;;;110502;1252;35115;-33
2022/09/10 12:16:35;;;;;;;8.40;7.60;;;;;;;;;;109987;1252;36134;-33
2022/09/10 12:19:15;;;;;;;10.00;8.30;;;;;;;;;;109915;1252;36166;-33
2022/09/10 12:21:51;;;;;;;8.90;8.00;;;;;;;;;;110030;1253;37122;-33
2022/09/10 12:24:32;;;;;;;8.40;7.60;;;;;;;;;;110032;1252;36645;-33
2022/09/10 12:27:04;;;;;;;8.70;7.90;;;;;;;;;;110014;1253;36562;-33
2022/09/10 12:29:39;;;;;;;9.10;8.10;;;;;;;;;;110027;1252;36186;-33
2022/09/10 12:32:37;;;;;;;9.10;8.20;;;;;;;;;;110061;1252;36634;-33
2022/09/10 12:35:45;;;;;;;11.00;8.80;;;;;;;;;;110055;1252;36641;-33
2022/09/10 12:38:54;;;;;;;8.90;8.00;;;;;;;;;;110049;1252;36277;-33
2022/09/10 12:42:00;;;;;;;9.30;8.30;;;;;;;;;;109997;1253;37037;-33
2022/09/10 12:44:48;;;;;;;9.50;8.50;;;;;;;;;;110036;1253;34783;-37
2022/09/10 12:47:42;;;;;;;10.30;9.20;;;;;;;;;;110020;1252;35039;-38
2022/09/10 12:50:45;;;;;;;9.90;8.90;;;;;;;;;;110022;1253;36729;-38
2022/09/10 12:53:56;;;;;;;9.90;8.80;;;;;;;;;;109900;1254;36562;-38
2022/09/10 12:56:54;;;;;;;12.80;11.40;;;;;;;;;;110020;1253;33921;-38
2022/09/10 12:59:53;;;;;;;12.20;10.30;;;;;;;;;;109992;1253;37859;-38
2022/09/10 13:02:30;;;;;;;10.50;9.40;;;;;;;;;;110078;1252;37451;-37
2022/09/10 13:05:05;;;;;;;11.80;9.90;;;;;;;;;;110144;1254;36911;-37
2022/09/10 13:07:43;;;;;;;10.00;9.00;;;;;;;;;;110278;1253;35658;-37
2022/09/10 13:10:24;;;;;;;11.00;9.50;;;;;;;;;;110188;1253;35054;-37
2022/09/10 13:13:03;;;;;;;9.60;8.70;;;;;;;;;;110214;1253;36185;-37
2022/09/10 13:15:39;;;;;;;10.70;8.70;;;;;;;;;;110189;1252;36508;-37
2022/09/10 13:18:27;;;;;;;9.60;8.50;;;;;;;;;;110096;1252;36748;-38
2022/09/10 13:20:58;;;;;;;9.20;8.30;;;;;;;;;;110041;1253;36204;-38
2022/09/10 13:23:49;;;;;;;10.00;8.90;;;;;;;;;;110057;1253;33936;-37
2022/09/10 13:26:51;;;;;;;9.80;8.80;;;;;;;;;;110054;1253;34724;-38
2022/09/10 13:29:36;;;;;;;10.20;8.00;;;;;;;;;;110052;1253;36463;-37
2022/09/10 13:32:14;;;;;;;9.50;8.40;;;;;;;;;;110017;1253;35612;-37
2022/09/10 13:35:26;;;;;;;10.80;8.60;;;;;;;;;;110072;1254;36134;-38
2022/09/10 13:38:14;;;;;;;10.00;8.20;;;;;;;;;;109384;1258;34907;-37
2022/09/10 13:41:20;;;;;;;9.10;7.80;;;;;;;;;;109982;1252;34767;-37
2022/09/10 13:44:15;;;;;;;9.70;7.60;;;;;;;;;;109731;1254;33946;-38
2022/09/10 13:46:50;;;;;;;11.80;7.60;;;;;;;;;;110026;1253;37013;-38
2022/09/10 13:49:29;;;;;;;10.90;8.30;;;;;;;;;;110021;1252;36403;-33
2022/09/10 13:52:05;;;;;;;9.20;7.70;;;;;;;;;;109989;1253;36225;-33
2022/09/10 13:54:42;;;;;;;8.40;7.60;;;;;;;;;;110039;1251;36147;-33
2022/09/10 13:57:17;;;;;;;9.70;7.90;;;;;;;;;;110170;1251;35336;-33
2022/09/10 13:59:53;;;;;;;8.40;7.00;;;;;;;;;;110153;1251;35633;-33
2022/09/10 14:02:43;;;;;;;8.20;7.00;;;;;;;;;;110029;1251;36540;-33
2022/09/10 14:05:32;;;;;;;8.10;7.00;;;;;;;;;;110018;1254;35013;-33
2022/09/10 14:08:07;;;;;;;8.60;6.70;;;;;;;;;;110046;1252;36081;-33
2022/09/10 14:10:50;;;;;;;7.80;7.00;;;;;;;;;;110053;1253;36166;-33
2022/09/10 14:13:26;;;;;;;8.20;7.00;;;;;;;;;;110027;1252;36723;-33
2022/09/10 14:16:03;;;;;;;9.20;7.20;;;;;;;;;;110078;1251;36755;-33
2022/09/10 14:18:43;;;;;;;9.50;7.00;;;;;;;;;;110039;1251;34869;-33
2022/09/10 14:21:18;;;;;;;8.00;6.80;;;;;;;;;;110048;1251;36116;-33
2022/09/10 14:23:49;;;;;;;9.10;6.90;;;;;;;;;;110022;1253;37127;-33
2022/09/10 14:26:25;;;;;;;8.10;7.00;;;;;;;;;;110008;1253;35664;-35
2022/09/10 14:28:59;;;;;;;9.00;7.60;;;;;;;;;;110005;1253;35306;-33
2022/09/10 14:31:36;;;;;;;8.60;6.70;;;;;;;;;;110045;1253;36432;-34
2022/09/10 14:34:33;;;;;;;8.20;6.80;;;;;;;;;;109996;1251;36251;-34
2022/09/10 14:37:43;;;;;;;9.00;6.90;;;;;;;;;;109846;1253;33521;-34
2022/09/10 14:40:22;;;;;;;7.50;6.10;;;;;;;;;;109977;1251;35672;-35
2022/09/10 14:42:52;;;;;;;7.90;6.40;;;;;;;;;;109978;1251;36217;-32
2022/09/10 14:45:45;;;;;;;8.80;6.50;;;;;;;;;;110075;1253;35088;-31
2022/09/10 14:48:35;;;;;;;8.50;6.30;;;;;;;;;;110203;1253;36408;-32
2022/09/10 14:51:21;;;;;;;10.40;7.00;;;;;;;;;;109995;1254;36239;-31
2022/09/10 14:53:54;;;;;;;7.50;6.70;;;;;;;;;;109976;1251;37244;-32
2022/09/10 14:56:31;;;;;;;8.30;6.30;;;;;;;;;;110006;1251;35688;-33
2022/09/10 14:59:06;;;;;;;10.50;6.90;;;;;;;;;;109924;1251;38300;-32
2022/09/10 15:01:36;;;;;;;8.60;6.50;;;;;;;;;;110041;1253;35214;-34
2022/09/10 15:04:08;;;;;;;7.80;6.30;;;;;;;;;;109978;1251;36569;-34
2022/09/10 15:06:39;;;;;;;7.80;6.70;;;;;;;;;;110012;1253;37937;-34
2022/09/10 15:09:13;;;;;;;8.10;6.30;;;;;;;;;;110037;1253;35442;-34
2022/09/10 15:11:53;;;;;;;7.80;6.50;;;;;;;;;;109985;1253;36853;-34
2022/09/10 15:14:25;;;;;;;7.90;6.30;;;;;;;;;;110045;1251;36553;-34
2022/09/10 15:16:56;;;;;;;8.90;6.60;;;;;;;;;;109739;1251;554806;-34
2022/09/10 15:19:27;;;;;;;7.80;6.60;;;;;;;;;;110054;1251;36700;-34
2022/09/10 15:21:59;;;;;;;8.50;6.40;;;;;;;;;;110137;1251;36223;-34